Flight Track Log - Related Links

Times and Time Zones

All times are in EDT time to prevent confusion due to time zone crossing. See the UAL1259 flight status page for this flight to view local times or setup timezone preferences in your user account.

Time Position Orientation Groundspeed Altitude Reporting Facility
EDT Latitude Longitude Course Direction KTS MPH feet Rate Location/Type
Thu 03:56:04 PM 41.9960 -87.9400 320° Northwest 171 197 1,300  Level FlightAware ADS-B
Thu 03:56:19 PM 42.0020 -87.9550 298° West 179 206 1,700 1,200 Climbing FlightAware ADS-B
Thu 03:56:29 PM 42.0020 -87.9650 270° West 194 223 1,800 1,950 Climbing FlightAware ADS-B
Thu 03:56:59 PM 42.0000 -88.0080 266° West 220 253 3,000 2,618 Climbing FlightAware ADS-B
Thu 03:57:24 PM 41.9970 -88.0420 263° West 226 260 4,200 1,855 Climbing FlightAware ADS-B
Thu 03:57:54 PM 41.9950 -88.0870 267° West 246 283 4,700 667 Climbing FlightAware ADS-B
Thu 03:58:09 PM 41.9940 -88.1080 266° West 247 284 4,700 933 Level FlightAware ADS-B
Thu 03:58:39 PM 41.9920 -88.1520 267° West 247 284 5,400 2,280 Climbing FlightAware ADS-B
Thu 03:58:59 PM 41.9910 -88.1820 267° West 242 278 6,600 2,700 Climbing FlightAware ADS-B
Thu 03:59:19 PM 41.9890 -88.2100 265° West 256 295 7,200 2,760 Climbing FlightAware ADS-B
Thu 03:59:49 PM 41.9860 -88.2670 266° West 268 308 8,900 3,343 Climbing FlightAware ADS-B
Thu 04:00:29 PM 41.9820 -88.3300 265° West 262 302 11,100 2,400 Climbing FlightAware ADS-B
Thu 04:01:09 PM 41.9970 -88.3950 287° West 292 336 12,100 1,412 Climbing FlightAware ADS-B
Thu 04:01:54 PM 42.0220 -88.4780 292° West 331 381 13,100 1,906 Climbing FlightAware ADS-B
Thu 04:02:34 PM 42.0450 -88.5540 292° West 339 390 14,800 2,400 Climbing FlightAware ADS-B
Thu 04:03:19 PM 42.0690 -88.6440 290° West 349 402 16,500 2,188 Climbing FlightAware ADS-B
Thu 04:03:59 PM 42.0680 -88.7320 269° West 364 419 17,900 2,100 Climbing FlightAware ADS-B
Thu 04:04:39 PM 42.0670 -88.8250 269° West 373 429 19,300 1,976 Climbing FlightAware ADS-B
Thu 04:05:24 PM 42.0630 -88.9320 267° West 380 437 20,700 1,906 Climbing FlightAware ADS-B
Thu 04:06:04 PM 42.0600 -89.0270 268° West 384 442 22,000 1,624 Climbing FlightAware ADS-B
Thu 04:06:49 PM 42.0560 -89.1330 267° West 390 449 23,000 706 Climbing FlightAware ADS-B
Thu 04:07:29 PM 42.0530 -89.2280 268° West 386 444 23,000 150 Level FlightAware ADS-B
Thu 04:08:09 PM 42.0500 -89.3250 268° West 387 445 23,200 1,200 Climbing FlightAware ADS-B
Thu 04:08:54 PM 42.0460 -89.4330 267° West 383 441 24,700 1,412 Climbing FlightAware ADS-B
Thu 04:09:34 PM 42.0430 -89.5300 268° West 390 449 25,200 1,129 Climbing FlightAware ADS-B
Thu 04:10:19 PM 42.0390 -89.6370 267° West 391 450 26,300 1,350 Climbing FlightAware ADS-B
Thu 04:10:54 PM 42.0370 -89.7250 268° West 397 457 27,000 1,350 Climbing FlightAware ADS-B
Thu 04:11:39 PM 42.0350 -89.8330 269° West 396 456 28,100 1,667 Climbing FlightAware ADS-B
Thu 04:12:24 PM 42.0410 -89.9430 274° West 381 438 29,500 1,694 Climbing FlightAware ADS-B
Thu 04:13:04 PM 42.0460 -90.0320 274° West 375 432 30,500 1,412 Climbing FlightAware ADS-B
Thu 04:13:49 PM 42.0520 -90.1390 274° West 372 428 31,500 1,200 Climbing FlightAware ADS-B
Thu 04:14:29 PM 42.0570 -90.2280 274° West 371 427 32,200 1,200 Climbing FlightAware ADS-B
Thu 04:15:09 PM 42.0620 -90.3200 274° West 367 422 33,100 1,200 Climbing FlightAware ADS-B
Thu 04:15:54 PM 42.0680 -90.4260 274° West 361 415 33,900 675 Climbing FlightAware ADS-B
Thu 04:16:29 PM 42.0720 -90.5030 274° West 362 417 34,000 71 Climbing FlightAware ADS-B
Thu 04:17:19 PM 42.0780 -90.6140 274° West 362 417 34,000  Level FlightAware ADS-B
Thu 04:17:49 PM 42.0810 -90.6750 274° West 362 417 34,000  Level FlightAware ADS-B
Thu 04:18:39 PM 42.0870 -90.7880 274° West 362 417 34,000  Level FlightAware ADS-B
Thu 04:19:19 PM 42.0910 -90.8800 273° West 362 417 34,000  Level FlightAware ADS-B
Thu 04:19:59 PM 42.0980 -90.9720 276° West 361 415 34,000  Level FlightAware ADS-B
Thu 04:20:44 PM 42.1130 -91.0630 283° West 360 414 34,000  Level FlightAware ADS-B
Thu 04:21:19 PM 42.1270 -91.1470 283° West 359 413 34,000  Level FlightAware ADS-B
Thu 04:22:09 PM 42.1450 -91.2490 283° West 361 415 34,000  Level FlightAware ADS-B
Thu 04:22:54 PM 42.1610 -91.3470 282° West 362 417 34,000  Level FlightAware ADS-B
Thu 04:23:29 PM 42.1740 -91.4260 283° West 363 418 34,000  Level FlightAware ADS-B
Thu 04:24:14 PM 42.1910 -91.5270 283° West 365 420 34,000  Level FlightAware ADS-B
Thu 04:24:54 PM 42.2060 -91.6170 283° West 365 420 34,000  Level FlightAware ADS-B
Thu 04:25:39 PM 42.2220 -91.7150 282° West 364 419 34,000  Level FlightAware ADS-B
Thu 04:26:24 PM 42.2380 -91.8180 282° West 363 418 34,000  Level FlightAware ADS-B
Thu 04:26:59 PM 42.2510 -91.8970 283° West 363 418 34,000  Level FlightAware ADS-B
Thu 04:27:49 PM 42.2690 -92.0070 283° West 363 418 34,000  Level FlightAware ADS-B
Thu 04:28:39 PM 42.2850 -92.1100 282° West 362 417 34,000  Level FlightAware ADS-B
Thu 04:29:24 PM 42.3020 -92.2130 283° West 362 417 34,000  Level FlightAware ADS-B
Thu 04:30:24 PM 42.3230 -92.3460 282° West 363 418 34,000  Level FlightAware ADS-B
Thu 04:31:04 PM 42.3360 -92.4310 282° West 366 421 34,000  Level FlightAware ADS-B
Thu 04:31:44 PM 42.3520 -92.5340 282° West 368 423 34,000  Level FlightAware ADS-B
Thu 04:32:24 PM 42.3660 -92.6260 282° West 369 425 34,000  Level FlightAware ADS-B
Thu 04:33:09 PM 42.3820 -92.7250 282° West 370 426 34,000  Level FlightAware ADS-B
Thu 04:33:49 PM 42.3960 -92.8170 282° West 371 427 34,000  Level FlightAware ADS-B
Thu 04:34:34 PM 42.4110 -92.9170 282° West 372 428 34,000  Level FlightAware ADS-B
Thu 04:35:14 PM 42.4250 -93.0100 282° West 373 429 34,000  Level FlightAware ADS-B
Thu 04:35:54 PM 42.4390 -93.1030 282° West 373 429 34,000  Level FlightAware ADS-B
Thu 04:36:39 PM 42.4540 -93.2040 281° West 373 429 34,000  Level FlightAware ADS-B
Thu 04:37:19 PM 42.4670 -93.2940 281° West 373 429 34,000  Level FlightAware ADS-B
Thu 04:38:04 PM 42.4830 -93.4010 281° West 373 429 34,000  Level FlightAware ADS-B
Thu 04:38:44 PM 42.4960 -93.4900 281° West 374 430 34,000  Level FlightAware ADS-B
Thu 04:39:29 PM 42.5110 -93.5930 281° West 374 430 34,000  Level FlightAware ADS-B
Thu 04:40:09 PM 42.5240 -93.6830 281° West 373 429 34,000  Level FlightAware ADS-B
Thu 04:40:49 PM 42.5380 -93.7750 282° West 373 429 34,000  Level FlightAware ADS-B
Thu 04:41:34 PM 42.5530 -93.8810 281° West 373 429 34,000  Level FlightAware ADS-B
Thu 04:42:14 PM 42.5660 -93.9720 281° West 373 429 34,000  Level FlightAware ADS-B
Thu 04:42:59 PM 42.5800 -94.0700 281° West 373 429 34,000  Level FlightAware ADS-B
Thu 04:43:39 PM 42.5920 -94.1610 280° West 373 429 34,000  Level FlightAware ADS-B
Thu 04:44:19 PM 42.6060 -94.2560 281° West 374 430 34,000  Level FlightAware ADS-B
Thu 04:45:14 PM 42.6100 -94.3860 272° West 378 435 34,000  Level FlightAware ADS-B
Thu 04:45:59 PM 42.6080 -94.4840 268° West 378 435 34,000  Level FlightAware ADS-B
Thu 04:46:39 PM 42.6070 -94.5650 269° West 378 435 34,000  Level FlightAware ADS-B
Thu 04:47:19 PM 42.6060 -94.6450 269° West 378 435 34,000  Level FlightAware ADS-B
Thu 04:47:59 PM 42.6050 -94.7260 269° West 378 435 34,000  Level FlightAware ADS-B
Thu 04:48:59 PM 42.6010 -94.9110 268° West 377 434 34,000  Level FlightAware ADS-B
Thu 04:49:54 PM 42.5990 -95.0420 269° West 376 433 34,000  Level FlightAware ADS-B
Thu 04:50:34 PM 42.5970 -95.1220 268° West 376 433 34,000  Level FlightAware ADS-B
Thu 04:51:14 PM 42.5950 -95.2020 268° West 376 433 34,000  Level FlightAware ADS-B
Thu 04:52:04 PM 42.5920 -95.3030 268° West 376 433 34,000  Level FlightAware ADS-B
Thu 04:52:44 PM 42.5900 -95.3830 268° West 376 433 34,000  Level FlightAware ADS-B
Thu 04:53:24 PM 42.5880 -95.4630 268° West 376 433 34,000  Level FlightAware ADS-B
Thu 04:54:04 PM 42.5860 -95.5440 268° West 376 433 34,000  Level FlightAware ADS-B
Thu 04:54:44 PM 42.5840 -95.6240 268° West 376 433 34,000  Level FlightAware ADS-B
Thu 04:55:34 PM 42.5810 -95.7240 268° West 376 433 34,000  Level FlightAware ADS-B
Thu 04:56:14 PM 42.5790 -95.8050 268° West 376 433 34,000  Level FlightAware ADS-B
Thu 04:56:54 PM 42.5770 -95.8850 268° West 376 433 34,000  Level FlightAware ADS-B
Thu 04:57:34 PM 42.5750 -95.9650 268° West 376 433 34,000  Level FlightAware ADS-B
Thu 04:58:14 PM 42.5730 -96.0450 268° West 376 433 34,000  Level FlightAware ADS-B
Thu 04:58:54 PM 42.5710 -96.1260 268° West 376 433 34,000  Level FlightAware ADS-B
Thu 05:00:03 PM 42.5631 -96.4706 268° West 376 433 34,000  Level Minneapolis Center
Thu 05:01:05 PM 42.5578 -96.6108 267° West 375 432 34,000  Level Minneapolis Center
Thu 05:02:07 PM 42.5533 -96.7531 268° West 377 434 34,000  Level Minneapolis Center
Thu 05:03:10 PM 42.5492 -96.8936 268° West 375 432 34,000  Level Minneapolis Center
Thu 05:04:12 PM 42.5433 -97.0342 267° West 375 432 34,000  Level Minneapolis Center
Thu 05:05:14 PM 42.5375 -97.2017 267° West 374 430 34,000  Level Minneapolis Center
Thu 05:06:16 PM 42.5317 -97.3436 267° West 377 434 34,000  Level Minneapolis Center
Thu 05:07:18 PM 42.5264 -97.4844 267° West 376 433 34,000  Level Minneapolis Center
Thu 05:08:20 PM 42.5192 -97.6267 266° West 378 435 34,000  Level Minneapolis Center
Thu 05:09:22 PM 42.5136 -97.7678 267° West 377 434 34,000  Level Minneapolis Center
Thu 05:10:24 PM 42.5081 -97.9172 267° West 378 435 34,000  Level Minneapolis Center
Thu 05:11:26 PM 42.5011 -98.0589 266° West 377 434 34,000  Level Minneapolis Center
Thu 05:12:28 PM 42.4933 -98.2281 266° West 377 434 34,000  Level Minneapolis Center
Thu 05:13:30 PM 42.4861 -98.3689 266° West 376 433 34,000  Level Minneapolis Center
Thu 05:14:32 PM 42.4800 -98.5111 267° West 378 435 34,000  Level Minneapolis Center
Thu 05:15:34 PM 42.4728 -98.6525 266° West 378 435 34,000  Level Minneapolis Center
Thu 05:16:36 PM 42.4522 -98.7917 259° West 378 435 34,000  Level Minneapolis Center
Thu 05:17:39 PM 42.4275 -98.9294 256° West 377 434 34,000  Level Minneapolis Center
Thu 05:18:41 PM 42.3986 -99.0922 257° West 372 428 34,000  Level Minneapolis Center
Thu 05:19:43 PM 42.3728 -99.2283 256° West 374 430 34,000  Level Minneapolis Center
Thu 05:20:45 PM 42.3486 -99.3631 256° West 371 427 34,000  Level Minneapolis Center
Thu 05:21:01 PM 42.3431 -99.3900 254° West 373 429 34,000  Level Denver Center
Thu 05:22:03 PM 42.3189 -99.5264 257° West 374 430 34,000  Level Denver Center
Thu 05:23:05 PM 42.2883 -99.6897 256° West 374 430 34,000  Level Denver Center
Thu 05:24:07 PM 42.2636 -99.8214 256° West 372 428 34,000  Level Denver Center
Thu 05:25:09 PM 42.2386 -99.9506 255° West 373 429 34,000  Level Denver Center
Thu 05:26:11 PM 42.2106 -100.1008 256° West 372 428 34,000  Level Denver Center
Thu 05:27:13 PM 42.1864 -100.2272 256° West 367 422 34,000  Level Denver Center
Thu 05:28:15 PM 42.1569 -100.3803 256° West 375 432 34,000  Level Denver Center
Thu 05:29:16 PM 42.1317 -100.5081 255° West 371 427 34,000  Level Denver Center
Thu 05:30:18 PM 42.1025 -100.6592 255° West 374 430 34,000  Level Denver Center
Thu 05:31:20 PM 42.0767 -100.7886 255° West 374 430 34,000  Level Denver Center
Thu 05:32:22 PM 42.0478 -100.9397 256° West 375 432 34,000  Level Denver Center
Thu 05:33:24 PM 42.0217 -101.0706 255° West 378 435 34,000  Level Denver Center
Thu 05:34:26 PM 41.9900 -101.2233 254° West 382 440 34,000  Level Denver Center
Thu 05:39:57 PM 41.8351 -101.9810 254° West 382 440 34,000  Level FlightAware ADS-B
Thu 05:40:30 PM 41.8190 -102.0570 254° West 381 438 34,000  Level FlightAware ADS-B
Thu 05:41:00 PM 41.8045 -102.1260 254° West 383 441 34,000  Level FlightAware ADS-B
Thu 05:41:31 PM 41.7899 -102.1960 254° West 384 442 34,000  Level FlightAware ADS-B
Thu 05:42:02 PM 41.7747 -102.2680 254° West 384 442 34,000  Level FlightAware ADS-B
Thu 05:42:33 PM 41.7597 -102.3380 254° West 385 443 34,000  Level FlightAware ADS-B
Thu 05:43:04 PM 41.7446 -102.4090 254° West 387 445 34,000  Level FlightAware ADS-B
Thu 05:43:34 PM 41.7297 -102.4790 254° West 387 445 34,000  Level FlightAware ADS-B
Thu 05:44:06 PM 41.7141 -102.5520 254° West 389 448 34,000  Level FlightAware ADS-B
Thu 05:44:37 PM 41.6986 -102.6240 254° West 389 448 34,000  Level FlightAware ADS-B
Thu 05:45:08 PM 41.6832 -102.6950 254° West 389 448 34,000  Level FlightAware ADS-B
Thu 05:45:39 PM 41.6677 -102.7660 254° West 391 450 34,000  Level FlightAware ADS-B
Thu 05:46:09 PM 41.6526 -102.8360 254° West 390 449 34,000  Level FlightAware ADS-B
Thu 05:46:49 PM 41.6327 -102.9270 254° West 392 451 34,000  Level FlightAware ADS-B
Thu 05:47:19 PM 41.6174 -102.9970 254° West 393 452 34,000  Level FlightAware ADS-B
Thu 05:47:49 PM 41.6019 -103.0670 254° West 393 452 34,000  Level FlightAware ADS-B
Thu 05:48:20 PM 41.5859 -103.1390 253° West 394 453 34,000  Level FlightAware ADS-B
Thu 05:48:51 PM 41.5698 -103.2110 253° West 393 452 34,000  Level FlightAware ADS-B
Thu 05:49:21 PM 41.5545 -103.2810 254° West 392 451 34,000  Level FlightAware ADS-B
Thu 05:49:51 PM 41.5390 -103.3500 253° West 391 450 34,000  Level FlightAware ADS-B
Thu 05:50:22 PM 41.5232 -103.4220 254° West 390 449 34,000  Level FlightAware ADS-B
Thu 05:50:53 PM 41.5069 -103.4940 253° West 390 449 34,000  Level FlightAware ADS-B
Thu 05:51:25 PM 41.4904 -103.5670 253° West 390 449 34,000  Level FlightAware ADS-B
Thu 05:51:55 PM 41.4748 -103.6360 253° West 390 449 34,000  Level FlightAware ADS-B
Thu 05:52:26 PM 41.4588 -103.7070 253° West 391 450 34,000  Level FlightAware ADS-B
Thu 05:52:56 PM 41.4429 -103.7770 253° West 391 450 34,000  Level FlightAware ADS-B
Thu 05:53:27 PM 41.4270 -103.8460 253° West 391 450 34,000  Level FlightAware ADS-B
Thu 05:53:57 PM 41.4111 -103.9160 253° West 392 451 34,000  Level FlightAware ADS-B
Thu 05:54:27 PM 41.3949 -103.9860 253° West 393 452 34,000  Level FlightAware ADS-B
Thu 05:54:58 PM 41.3789 -104.0560 253° West 393 452 34,000  Level FlightAware ADS-B
Thu 05:55:28 PM 41.3626 -104.1260 253° West 393 452 34,000  Level FlightAware ADS-B
Thu 05:55:59 PM 41.3459 -104.1990 253° West 393 452 34,000  Level FlightAware ADS-B
Thu 05:56:30 PM 41.3297 -104.2680 253° West 394 453 34,000  Level FlightAware ADS-B
Thu 05:57:00 PM 41.3133 -104.3380 253° West 394 453 34,000  Level FlightAware ADS-B
Thu 05:57:30 PM 41.2971 -104.4080 253° West 393 452 34,000  Level FlightAware ADS-B
Thu 05:58:00 PM 41.2810 -104.4770 253° West 393 452 34,000  Level FlightAware ADS-B
Thu 05:58:31 PM 41.2642 -104.5480 253° West 393 452 34,000  Level FlightAware ADS-B
Thu 05:59:01 PM 41.2479 -104.6170 253° West 393 452 34,000  Level FlightAware ADS-B
Thu 05:59:32 PM 41.2314 -104.6870 253° West 394 453 34,000  Level FlightAware ADS-B
Thu 06:00:02 PM 41.2147 -104.7570 252° West 395 455 34,000  Level FlightAware ADS-B
Thu 06:00:33 PM 41.1928 -104.8260 247° West 396 456 34,000  Level FlightAware ADS-B
Thu 06:01:04 PM 41.1692 -104.8950 246° West 396 456 34,000  Level FlightAware ADS-B
Thu 06:01:34 PM 41.1461 -104.9610 245° Southwest 397 457 34,000  Level FlightAware ADS-B
Thu 06:02:05 PM 41.1226 -105.0290 245° Southwest 398 458 34,000  Level FlightAware ADS-B
Thu 06:02:36 PM 41.0985 -105.0990 245° Southwest 397 457 34,000  Level FlightAware ADS-B
Thu 06:03:07 PM 41.0748 -105.1670 245° Southwest 394 453 34,000  Level FlightAware ADS-B
Thu 06:03:42 PM 41.0482 -105.2430 245° Southwest 396 456 34,000  Level FlightAware ADS-B
Thu 06:04:39 PM 41.0080 -105.3580 245° Southwest 397 457 34,000  Level FlightAware ADS-B
Thu 06:05:19 PM 40.9760 -105.4490 245° Southwest 395 455 34,000  Level FlightAware ADS-B
Thu 06:05:51 PM 40.9489 -105.5260 245° Southwest 396 456 34,000  Level FlightAware ADS-B
Thu 06:06:28 PM 40.9210 -105.6050 245° Southwest 392 451 34,000  Level FlightAware ADS-B
Thu 06:06:58 PM 40.8978 -105.6720 245° Southwest 392 451 34,000  Level FlightAware ADS-B
Thu 06:08:09 PM 40.8450 -105.8190 245° Southwest 401 461 34,000  Level FlightAware ADS-B
Thu 06:08:49 PM 40.8140 -105.9080 245° Southwest 399 459 34,000  Level FlightAware ADS-B
Thu 06:09:24 PM 40.7860 -105.9840 244° Southwest 405 466 34,000  Level FlightAware ADS-B
Thu 06:10:09 PM 40.7510 -106.0830 245° Southwest 407 468 34,000  Level FlightAware ADS-B
Thu 06:10:54 PM 40.7130 -106.1870 244° Southwest 399 459 34,000  Level FlightAware ADS-B
Thu 06:11:39 PM 40.6780 -106.2860 245° Southwest 399 459 34,000  Level FlightAware ADS-B
Thu 06:12:34 PM 40.6370 -106.3960 244° Southwest 398 458 34,000  Level FlightAware ADS-B
Thu 06:13:14 PM 40.6020 -106.4930 245° Southwest 395 455 34,000  Level FlightAware ADS-B
Thu 06:14:09 PM 40.5600 -106.6090 245° Southwest 397 457 34,000  Level FlightAware ADS-B
Thu 06:14:54 PM 40.5220 -106.7120 244° Southwest 399 459 34,000  Level FlightAware ADS-B
Thu 06:15:34 PM 40.4900 -106.8000 244° Southwest 401 461 34,000  Level FlightAware ADS-B
Thu 06:16:19 PM 40.4570 -106.8870 244° Southwest 401 461 34,000  Level FlightAware ADS-B
Thu 06:16:59 PM 40.4300 -106.9620 245° Southwest 401 461 34,000  Level FlightAware ADS-B
Thu 06:17:39 PM 40.4020 -107.0360 244° Southwest 401 461 34,000  Level FlightAware ADS-B
Thu 06:18:19 PM 40.3740 -107.1110 244° Southwest 401 461 34,000  Level FlightAware ADS-B
Thu 06:18:59 PM 40.3470 -107.1850 244° Southwest 401 461 34,000  Level FlightAware ADS-B
Thu 06:19:49 PM 40.3120 -107.2780 244° Southwest 401 461 34,000  Level FlightAware ADS-B
Thu 06:20:29 PM 40.2850 -107.3520 244° Southwest 401 461 34,000  Level FlightAware ADS-B
Thu 06:21:09 PM 40.2570 -107.4270 244° Southwest 401 461 34,000  Level FlightAware ADS-B
Thu 06:21:49 PM 40.2290 -107.5010 244° Southwest 401 461 34,000  Level FlightAware ADS-B
Thu 06:22:29 PM 40.2020 -107.5750 244° Southwest 401 461 34,000  Level FlightAware ADS-B
Thu 06:23:19 PM 40.1670 -107.6680 244° Southwest 401 461 34,000  Level FlightAware ADS-B
Thu 06:23:59 PM 40.1390 -107.7420 244° Southwest 401 461 34,000  Level FlightAware ADS-B
Thu 06:24:39 PM 40.1120 -107.8160 245° Southwest 401 461 34,000  Level FlightAware ADS-B
Thu 06:25:19 PM 40.0840 -107.8900 244° Southwest 401 461 34,000  Level FlightAware ADS-B
Thu 06:25:45 PM 39.9739 -108.1075 244° Southwest 407 468 34,000  Level Salt Lake Center
Thu 06:26:20 PM 39.9347 -108.1864 237° Southwest 407 468 34,000  Level Denver Center
Thu 06:27:22 PM 39.8644 -108.3244 236° Southwest 399 459 34,000  Level Denver Center
Thu 06:28:24 PM 39.8022 -108.4422 236° Southwest 415 478 34,000  Level Denver Center
Thu 06:29:26 PM 39.7325 -108.5783 236° Southwest 407 468 34,000  Level Denver Center
Thu 06:30:28 PM 39.6717 -108.6956 236° Southwest 409 471 34,000  Level Denver Center
Thu 06:31:31 PM 39.6047 -108.8247 236° Southwest 415 478 34,000  Level Denver Center
Thu 06:32:33 PM 39.5442 -108.9403 236° Southwest 407 468 34,000  Level Denver Center
Thu 06:33:35 PM 39.4728 -109.0758 236° Southwest 407 468 34,000  Level Denver Center
Thu 06:34:36 PM 39.4219 -109.1725 236° Southwest 408 470 34,000  Level Denver Center
Thu 06:35:39 PM 39.3394 -109.3283 236° Southwest 411 473 34,000  Level Denver Center
Thu 06:36:41 PM 39.2786 -109.4453 236° Southwest 412 474 34,000  Level Denver Center
Thu 06:37:06 PM 39.2469 -109.5033 235° Southwest 412 474 34,000  Level Salt Lake Center
Thu 06:38:07 PM 39.1850 -109.6217 236° Southwest 416 479 34,000  Level Salt Lake Center
Thu 06:38:45 PM 39.1431 -109.7014 236° Southwest 420 483 34,000  Level Denver Center
Thu 06:39:47 PM 39.0697 -109.8372 235° Southwest 413 475 34,000  Level Denver Center
Thu 06:40:49 PM 39.0058 -109.9547 235° Southwest 416 479 34,000  Level Denver Center
Thu 06:41:13 PM 38.9747 -110.0136 236° Southwest 416 479 34,000  Level Salt Lake Center
Thu 06:42:15 PM 38.9100 -110.1303 235° Southwest 418 481 34,000  Level Salt Lake Center
Thu 06:42:53 PM 38.8694 -110.2097 237° Southwest 417 480 34,000  Level Denver Center
Thu 06:43:55 PM 38.7925 -110.3458 234° Southwest 422 486 34,000  Level Denver Center
Thu 06:44:18 PM 38.7725 -110.3861 238° Southwest 421 484 34,000  Level Salt Lake Center
Thu 06:45:20 PM 38.6978 -110.5217 235° Southwest 418 481 34,000  Level Salt Lake Center
Thu 06:46:22 PM 38.6331 -110.6381 235° Southwest 418 481 34,000  Level Salt Lake Center
Thu 06:47:24 PM 38.5700 -110.7542 235° Southwest 417 480 34,000  Level Salt Lake Center
Thu 06:48:26 PM 38.4922 -110.8922 234° Southwest 429 494 34,000  Level Salt Lake Center
Thu 06:49:28 PM 38.4250 -111.0136 235° Southwest 434 499 34,000  Level Salt Lake Center
Thu 06:50:29 PM 38.3553 -111.1397 235° Southwest 435 501 34,000  Level Salt Lake Center
Thu 06:51:31 PM 38.2842 -111.2653 234° Southwest 436 502 34,000  Level Salt Lake Center
Thu 06:52:33 PM 38.1997 -111.4150 234° Southwest 436 502 34,000  Level Salt Lake Center
Thu 06:53:35 PM 38.1289 -111.5403 234° Southwest 437 503 34,000  Level Salt Lake Center
Thu 06:54:36 PM 38.0569 -111.6642 234° Southwest 437 503 34,000  Level Salt Lake Center
Thu 06:55:38 PM 37.9842 -111.7883 233° Southwest 439 505 34,000  Level Salt Lake Center
Thu 06:56:40 PM 37.9144 -111.9114 234° Southwest 434 499 34,000  Level Salt Lake Center
Thu 06:57:41 PM 37.8431 -112.0347 234° Southwest 433 498 34,000  Level Salt Lake Center
Thu 06:58:43 PM 37.7728 -112.1581 234° Southwest 433 498 34,000  Level Salt Lake Center
Thu 06:59:45 PM 37.6883 -112.3039 234° Southwest 428 493 34,000  Level Salt Lake Center
Thu 07:00:47 PM 37.6139 -112.4219 232° Southwest 428 493 34,000  Level Salt Lake Center
Thu 07:06:09 PM 37.2070 -113.0530 232° Southwest 439 505 34,000  Level FlightAware ADS-B
Thu 07:06:59 PM 37.1420 -113.1530 231° Southwest 439 505 34,000  Level FlightAware ADS-B
Thu 07:07:39 PM 37.0910 -113.2310 231° Southwest 440 506 34,000  Level FlightAware ADS-B
Thu 07:08:24 PM 37.0290 -113.3250 230° Southwest 439 505 34,000  Level FlightAware ADS-B
Thu 07:09:04 PM 36.9780 -113.4020 230° Southwest 439 505 34,000  Level FlightAware ADS-B
Thu 07:09:44 PM 36.9270 -113.4810 231° Southwest 438 504 34,000  Level FlightAware ADS-B
Thu 07:10:29 PM 36.8700 -113.5660 230° Southwest 437 503 34,000  Level FlightAware ADS-B
Thu 07:11:09 PM 36.8180 -113.6450 231° Southwest 437 503 34,000  Level FlightAware ADS-B
Thu 07:11:49 PM 36.7680 -113.7210 231° Southwest 435 501 34,000  Level FlightAware ADS-B
Thu 07:12:34 PM 36.7080 -113.8110 230° Southwest 436 502 34,000  Level FlightAware ADS-B
Thu 07:13:14 PM 36.6560 -113.8890 230° Southwest 440 506 34,000  Level FlightAware ADS-B
Thu 07:13:54 PM 36.6040 -113.9670 230° Southwest 442 509 34,000  Level FlightAware ADS-B
Thu 07:14:39 PM 36.5460 -114.0530 230° Southwest 443 510 34,000  Level FlightAware ADS-B
Thu 07:15:24 PM 36.4860 -114.1430 230° Southwest 444 511 34,000  Level FlightAware ADS-B
Thu 07:16:04 PM 36.4330 -114.2210 230° Southwest 446 513 34,000  Level FlightAware ADS-B
Thu 07:16:44 PM 36.3800 -114.2990 230° Southwest 444 511 34,000  Level FlightAware ADS-B
Thu 07:17:29 PM 36.3220 -114.3850 230° Southwest 445 512 34,000  Level FlightAware ADS-B
Thu 07:18:09 PM 36.2690 -114.4640 230° Southwest 445 512 34,000  Level FlightAware ADS-B
Thu 07:18:54 PM 36.2090 -114.5520 230° Southwest 445 512 34,000  Level FlightAware ADS-B
Thu 07:19:29 PM 36.1630 -114.6200 230° Southwest 447 514 34,000  Level FlightAware ADS-B
Thu 07:20:14 PM 36.1020 -114.7090 230° Southwest 448 516 34,000  Level FlightAware ADS-B
Thu 07:20:59 PM 36.0430 -114.7940 229° Southwest 447 514 34,000  Level FlightAware ADS-B
Thu 07:21:39 PM 35.9890 -114.8730 230° Southwest 446 513 34,000  Level FlightAware ADS-B
Thu 07:22:24 PM 35.9260 -114.9580 228° Southwest 446 513 34,000  Level FlightAware ADS-B
Thu 07:23:04 PM 35.8700 -115.0340 228° Southwest 445 512 34,000  Level FlightAware ADS-B
Thu 07:23:44 PM 35.8150 -115.1080 228° Southwest 442 509 34,000  Level FlightAware ADS-B
Thu 07:24:29 PM 35.7550 -115.1910 228° Southwest 441 507 34,000  Level FlightAware ADS-B
Thu 07:25:09 PM 35.6970 -115.2640 226° Southwest 446 513 34,000  Level FlightAware ADS-B
Thu 07:25:54 PM 35.6300 -115.3430 224° Southwest 447 514 34,000  Level FlightAware ADS-B
Thu 07:26:34 PM 35.5700 -115.4140 224° Southwest 449 517 34,000  Level FlightAware ADS-B
Thu 07:27:14 PM 35.5100 -115.4850 224° Southwest 450 518 34,000  Level FlightAware ADS-B
Thu 07:27:54 PM 35.4520 -115.5550 225° Southwest 449 517 34,000  Level FlightAware ADS-B
Thu 07:28:39 PM 35.3830 -115.6360 224° Southwest 449 517 34,000  Level FlightAware ADS-B
Thu 07:29:24 PM 35.3180 -115.7130 224° Southwest 446 513 34,000 -494 Level FlightAware ADS-B
Thu 07:30:04 PM 35.2580 -115.7830 224° Southwest 442 509 33,300 -1,050 Descending FlightAware ADS-B
Thu 07:30:44 PM 35.1990 -115.8520 224° Southwest 445 512 32,600 -988 Descending FlightAware ADS-B
Thu 07:31:29 PM 35.1310 -115.9320 224° Southwest 442 509 31,900 -988 Descending FlightAware ADS-B
Thu 07:32:09 PM 35.0720 -116.0010 224° Southwest 436 502 31,200 -988 Descending FlightAware ADS-B
Thu 07:32:54 PM 35.0090 -116.0750 224° Southwest 427 491 30,500 -600 Descending FlightAware ADS-B
Thu 07:33:49 PM 34.9350 -116.1600 223° Southwest 432 497 30,200 -189 Descending FlightAware ADS-B
Thu 07:34:29 PM 34.8850 -116.2170 223° Southwest 432 497 30,200  Level FlightAware ADS-B
Thu 07:35:09 PM 34.8350 -116.2730 223° Southwest 432 497 30,200  Level FlightAware ADS-B
Thu 07:35:49 PM 34.7850 -116.3300 223° Southwest 432 497 30,200  Level FlightAware ADS-B
Thu 07:36:29 PM 34.7360 -116.3860 223° Southwest 432 497 30,200  Level FlightAware ADS-B
Thu 07:37:19 PM 34.6740 -116.4560 223° Southwest 432 497 30,200 -2,133 Level FlightAware ADS-B
Thu 07:37:59 PM 34.5860 -116.5640 225° Southwest 402 463 27,000 -2,475 Descending FlightAware ADS-B
Thu 07:38:39 PM 34.5340 -116.6230 223° Southwest 402 463 26,900 -75 Descending FlightAware ADS-B
Thu 07:39:19 PM 34.4880 -116.6760 224° Southwest 402 463 26,900 -1,271 Level FlightAware ADS-B
Thu 07:40:04 PM 34.4170 -116.7580 224° Southwest 401 461 25,100 -1,733 Descending FlightAware ADS-B
Thu 07:40:49 PM 34.3560 -116.8270 223° Southwest 394 453 24,300 -1,624 Descending FlightAware ADS-B
Thu 07:41:29 PM 34.3030 -116.8870 223° Southwest 384 442 22,800 -2,118 Descending FlightAware ADS-B
Thu 07:42:14 PM 34.2460 -116.9530 224° Southwest 364 419 21,300 -1,835 Descending FlightAware ADS-B
Thu 07:42:54 PM 34.2000 -117.0050 223° Southwest 349 402 20,200 -1,800 Descending FlightAware ADS-B
Thu 07:43:34 PM 34.1490 -117.0610 222° Southwest 361 415 18,900 -1,553 Descending FlightAware ADS-B
Thu 07:44:19 PM 34.1020 -117.1240 228° Southwest 342 394 18,000 -635 Descending FlightAware ADS-B
Thu 07:44:59 PM 34.0710 -117.1900 240° Southwest 323 372 18,000  Level FlightAware ADS-B
Thu 07:45:44 PM 34.0460 -117.2630 248° West 313 360 18,000 -776 Level FlightAware ADS-B
Thu 07:46:24 PM 34.0400 -117.3330 264° West 312 359 16,900 -1,500 Descending FlightAware ADS-B
Thu 07:47:04 PM 34.0340 -117.4000 264° West 305 351 16,000 -1,553 Descending FlightAware ADS-B
Thu 07:47:49 PM 34.0270 -117.4760 264° West 302 348 14,700 -1,906 Descending FlightAware ADS-B
Thu 07:48:29 PM 34.0210 -117.5430 264° West 304 350 13,300 -1,976 Descending FlightAware ADS-B
Thu 07:49:14 PM 34.0130 -117.6180 263° West 297 342 11,900 -1,050 Descending FlightAware ADS-B
Thu 07:49:49 PM 34.0140 -117.6660 271° West 289 333 11,900 -525 Level FlightAware ADS-B
Thu 07:50:34 PM 34.0170 -117.7490 273° West 286 329 11,200 -1,133 Descending FlightAware ADS-B
Thu 07:51:19 PM 34.0110 -117.8170 264° West 280 322 10,200 -1,457 Descending FlightAware ADS-B
Thu 07:51:44 PM 34.0060 -117.8540 261° West 276 318 9,500 -1,855 Descending FlightAware ADS-B
Thu 07:52:14 PM 34.0020 -117.9030 264° West 282 325 8,500 -1,800 Descending FlightAware ADS-B
Thu 07:52:44 PM 33.9980 -117.9470 264° West 281 323 7,700 -1,527 Descending FlightAware ADS-B
Thu 07:53:09 PM 33.9940 -117.9870 263° West 277 319 7,100 -1,418 Descending FlightAware ADS-B
Thu 07:53:39 PM 33.9890 -118.0330 263° West 272 313 6,400 -1,309 Descending FlightAware ADS-B
Thu 07:54:04 PM 33.9850 -118.0710 263° West 264 304 5,900 -873 Descending FlightAware ADS-B
Thu 07:54:34 PM 33.9810 -118.1130 263° West 247 284 5,600 -655 Descending FlightAware ADS-B
Thu 07:54:59 PM 33.9780 -118.1450 264° West 229 264 5,300 -600 Descending FlightAware ADS-B
Thu 07:55:24 PM 33.9760 -118.1750 265° West 206 237 5,100 -1,000 Descending FlightAware ADS-B
Thu 07:55:59 PM 33.9720 -118.2130 263° West 202 232 4,300 -1,500 Descending FlightAware ADS-B
Thu 07:56:24 PM 33.9690 -118.2420 263° West 203 234 3,600 -1,636 Descending FlightAware ADS-B
Thu 07:56:54 PM 33.9660 -118.2760 264° West 206 237 2,800 -1,560 Descending FlightAware ADS-B
Thu 07:57:14 PM 33.9630 -118.2970 260° West 193 222 2,300 -1,527 Descending FlightAware ADS-B
Thu 07:57:49 PM 33.9590 -118.3310 262° West 174 200 1,400 -975 Descending FlightAware ADS-B
Thu 07:58:34 PM 33.9550 -118.3710 263° West 160 184 1,000 -533 Descending FlightAware ADS-B

Login

Don't have an account? Register now (free) for customized features, flight alerts, and more!